Time;durP1;ratioP1;P1;durP2;ratioP2;P2;SDS_P1;SDS_P2;PMS_P1;PMS_P2;Temp;Humidity;BMP_temperature;BMP_pressure;BME280_temperature;BME280_humidity;BME280_pressure;Samples;Min_cycle;Max_cycle;Signal;HPM_P1;HPM_P2
2021/01/12 00:01:45;;;;;;;2.45;0.98;;;22.70;31.40;;;;;;4989701;28;20336;-50
2021/01/12 00:04:11;;;;;;;1.20;0.70;;;22.70;31.40;;;;;;4989145;28;20026;-49
2021/01/12 00:06:38;;;;;;;1.48;0.73;;;22.70;31.40;;;;;;4993400;28;20026;-53
2021/01/12 00:09:05;;;;;;;2.70;0.85;;;22.70;31.50;;;;;;4993497;28;20330;-51
2021/01/12 00:11:31;;;;;;;1.00;0.50;;;22.70;31.60;;;;;;4996298;28;20042;-49
2021/01/12 00:13:57;;;;;;;1.85;0.77;;;22.60;31.50;;;;;;4981425;28;20058;-53
2021/01/12 00:16:22;;;;;;;1.20;0.75;;;22.60;31.60;;;;;;4990238;28;20042;-51
2021/01/12 00:18:48;;;;;;;2.03;0.90;;;22.60;31.60;;;;;;4989870;28;20073;-48
2021/01/12 00:21:15;;;;;;;0.50;0.45;;;22.60;31.70;;;;;;4994514;28;20054;-52
2021/01/12 00:23:41;;;;;;;1.50;0.80;;;22.60;31.70;;;;;;4984843;28;20440;-51
2021/01/12 00:26:07;;;;;;;0.90;0.55;;;22.60;31.80;;;;;;4992825;28;20049;-50
2021/01/12 00:28:34;;;;;;;0.90;0.50;;;22.60;31.80;;;;;;4986287;28;20022;-46
2021/01/12 00:31:06;;;;;;;0.65;0.50;;;22.50;31.80;;;;;;4979932;28;20521;-49
2021/01/12 00:33:32;;;;;;;0.90;0.60;;;22.50;32.50;;;;;;4989262;28;20484;-48
2021/01/12 00:36:06;;;;;;;1.10;0.60;;;22.50;31.90;;;;;;4989330;28;21269;-54
2021/01/12 00:38:32;;;;;;;0.75;0.50;;;22.50;31.90;;;;;;4978560;28;20069;-52
2021/01/12 00:40:58;;;;;;;1.60;0.70;;;22.50;31.90;;;;;;4984587;28;20035;-48
2021/01/12 00:43:25;;;;;;;0.65;0.50;;;22.50;32.00;;;;;;4979062;28;20027;-53
2021/01/12 00:45:51;;;;;;;0.85;0.50;;;22.50;32.00;;;;;;4984414;28;20026;-52
2021/01/12 00:48:17;;;;;;;1.08;0.63;;;22.40;32.70;;;;;;4994336;28;20040;-50
2021/01/12 00:50:43;;;;;;;0.90;0.60;;;22.40;32.10;;;;;;5003062;28;20034;-52
2021/01/12 00:53:08;;;;;;;1.05;0.63;;;22.40;32.10;;;;;;4976474;28;20034;-50
2021/01/12 00:55:34;;;;;;;1.23;0.80;;;22.40;32.10;;;;;;4978498;28;20042;-47
2021/01/12 00:58:00;;;;;;;1.05;0.60;;;22.40;32.20;;;;;;4987957;28;20381;-47
2021/01/12 01:00:26;;;;;;;1.50;0.50;;;22.40;32.20;;;;;;4990827;28;20035;-47
2021/01/12 01:02:52;;;;;;;0.73;0.55;;;22.40;32.20;;;;;;4994768;28;20513;-50
2021/01/12 01:05:18;;;;;;;0.70;0.50;;;22.40;32.30;;;;;;4999061;28;20045;-47
2021/01/12 01:07:47;;;;;;;0.82;0.50;;;22.40;32.30;;;;;;4981729;28;20030;-46
2021/01/12 01:10:13;;;;;;;0.80;0.57;;;22.40;32.30;;;;;;4983468;28;20056;-47
2021/01/12 01:12:39;;;;;;;0.82;0.40;;;22.40;32.30;;;;;;4991662;28;20038;-47
2021/01/12 01:15:05;;;;;;;1.30;0.60;;;22.40;32.40;;;;;;4981132;28;20430;-47
2021/01/12 01:17:34;;;;;;;0.60;0.32;;;22.30;32.40;;;;;;4993743;28;20117;-50
2021/01/12 01:20:00;;;;;;;0.60;0.32;;;22.30;32.40;;;;;;4994061;28;20046;-50
2021/01/12 01:22:25;;;;;;;1.13;0.52;;;22.30;32.50;;;;;;4993394;28;20450;-50
2021/01/12 01:24:51;;;;;;;0.57;0.50;;;22.30;32.50;;;;;;4982623;28;20087;-50
2021/01/12 01:27:17;;;;;;;0.30;0.30;;;22.30;32.50;;;;;;4986950;28;20026;-49
2021/01/12 01:29:43;;;;;;;0.98;0.45;;;22.30;32.60;;;;;;4979089;28;20030;-49
2021/01/12 01:32:10;;;;;;;0.47;0.40;;;22.30;32.60;;;;;;4978872;28;20057;-49
2021/01/12 01:34:37;;;;;;;0.30;0.30;;;22.20;32.50;;;;;;5006006;28;20472;-47
2021/01/12 01:37:03;;;;;;;0.65;0.40;;;22.20;32.60;;;;;;4988354;28;20450;-52
2021/01/12 01:39:29;;;;;;;0.80;0.50;;;22.20;32.60;;;;;;4994485;28;20347;-50
2021/01/12 01:41:58;;;;;;;0.85;0.52;;;22.20;32.60;;;;;;4988277;28;20037;-48
2021/01/12 01:44:24;;;;;;;0.90;0.40;;;22.20;32.70;;;;;;4995044;28;20046;-51
2021/01/12 01:46:50;;;;;;;1.08;0.40;;;22.20;32.70;;;;;;4982117;28;20026;-49
2021/01/12 01:49:16;;;;;;;0.73;0.35;;;22.20;32.80;;;;;;4981143;28;20038;-48
2021/01/12 01:51:43;;;;;;;1.90;0.57;;;22.20;32.80;;;;;;4976564;28;20035;-49
2021/01/12 01:54:11;;;;;;;1.45;0.85;;;22.20;32.80;;;;;;4991337;28;20036;-50
2021/01/12 01:56:37;;;;;;;1.02;0.43;;;22.20;32.80;;;;;;4994847;28;20407;-51
2021/01/12 01:59:03;;;;;;;0.63;0.50;;;22.10;32.80;;;;;;4997343;28;20128;-51
2021/01/12 02:01:29;;;;;;;1.77;0.45;;;22.10;32.80;;;;;;4992650;28;20406;-54
2021/01/12 02:04:07;;;;;;;0.43;0.40;;;22.10;32.80;;;;;;4994568;28;20113;-47
2021/01/12 02:06:35;;;;;;;1.27;0.50;;;22.10;32.80;;;;;;4993455;28;20134;-52
2021/01/12 02:09:28;;;;;;;0.55;0.30;;;22.10;32.80;;;;;;4965486;28;20035;-48
2021/01/12 02:11:58;;;;;;;3.40;0.50;;;22.10;32.90;;;;;;4978987;28;20126;-46
2021/01/12 02:14:28;;;;;;;0.38;0.30;;;22.10;32.90;;;;;;5010416;28;20042;-52
2021/01/12 02:16:56;;;;;;;0.65;0.30;;;22.10;32.90;;;;;;5009339;28;20034;-49
2021/01/12 02:19:26;;;;;;;0.68;0.38;;;22.00;32.90;;;;;;4989016;28;20092;-48
2021/01/12 02:21:58;;;;;;;0.95;0.40;;;22.00;33.00;;;;;;4991951;28;20050;-49
2021/01/12 02:24:24;;;;;;;0.95;0.40;;;22.00;33.00;;;;;;4975516;28;20549;-50
2021/01/12 02:26:49;;;;;;;0.82;0.35;;;22.00;33.00;;;;;;4976850;28;20031;-54
2021/01/12 02:29:15;;;;;;;0.90;0.40;;;22.00;33.10;;;;;;4994978;28;20429;-48
2021/01/12 02:31:41;;;;;;;0.95;0.30;;;22.00;33.10;;;;;;4993401;28;20042;-50
2021/01/12 02:34:13;;;;;;;0.30;0.30;;;22.00;33.10;;;;;;4994770;28;20357;-52
2021/01/12 02:36:40;;;;;;;0.70;0.30;;;22.00;33.20;;;;;;4994135;28;20038;-49
2021/01/12 02:39:06;;;;;;;0.43;0.30;;;22.00;33.20;;;;;;4984377;28;20038;-47
2021/01/12 02:41:33;;;;;;;0.50;0.38;;;22.00;33.20;;;;;;4979102;28;20109;-49
2021/01/12 02:44:02;;;;;;;0.30;0.30;;;22.00;33.30;;;;;;4993967;28;20034;-50
2021/01/12 02:46:28;;;;;;;0.40;0.30;;;22.00;33.40;;;;;;4980015;28;20070;-48
2021/01/12 02:48:53;;;;;;;0.30;0.30;;;22.00;33.40;;;;;;4979362;28;20421;-51
2021/01/12 02:51:19;;;;;;;0.50;0.30;;;21.90;33.40;;;;;;4982189;28;20538;-51
2021/01/12 02:53:45;;;;;;;0.68;0.40;;;21.90;33.40;;;;;;4985375;28;20038;-52
2021/01/12 02:56:11;;;;;;;0.43;0.30;;;21.90;33.40;;;;;;4991917;28;20122;-48
2021/01/12 02:58:37;;;;;;;0.28;0.20;;;21.90;33.50;;;;;;4984602;28;20026;-49
2021/01/12 03:01:03;;;;;;;0.75;0.30;;;21.90;33.50;;;;;;4988763;28;20065;-54
2021/01/12 03:03:29;;;;;;;0.40;0.28;;;21.90;33.50;;;;;;4967471;28;20359;-54
2021/01/12 03:05:55;;;;;;;0.60;0.40;;;21.90;33.60;;;;;;4992085;28;20041;-48
2021/01/12 03:08:21;;;;;;;1.85;0.43;;;21.90;33.60;;;;;;4988129;28;20067;-47
2021/01/12 03:10:48;;;;;;;0.47;0.30;;;21.90;33.60;;;;;;4987502;28;20026;-46
2021/01/12 03:13:13;;;;;;;0.40;0.30;;;21.90;33.70;;;;;;4981773;28;20042;-50
2021/01/12 03:15:40;;;;;;;0.45;0.30;;;21.80;33.70;;;;;;4987468;28;20030;-47
2021/01/12 03:18:08;;;;;;;1.73;0.20;;;21.90;33.80;;;;;;4985990;28;20426;-50
2021/01/12 03:20:34;;;;;;;0.52;0.30;;;21.80;33.80;;;;;;4989468;28;21595;-49
2021/01/12 03:23:01;;;;;;;0.47;0.40;;;21.80;33.80;;;;;;4990296;28;20019;-49
2021/01/12 03:25:27;;;;;;;0.70;0.30;;;21.80;33.80;;;;;;4987096;28;20036;-46
2021/01/12 03:27:53;;;;;;;0.70;0.22;;;21.80;33.80;;;;;;4986289;28;20101;-47
2021/01/12 03:30:21;;;;;;;0.63;0.30;;;21.80;33.90;;;;;;4984067;28;20353;-46
2021/01/12 03:32:47;;;;;;;0.40;0.30;;;21.80;33.90;;;;;;4984295;28;20042;-49
2021/01/12 03:35:13;;;;;;;0.68;0.30;;;21.80;34.00;;;;;;4989697;28;20353;-49
2021/01/12 03:37:41;;;;;;;0.93;0.43;;;21.80;34.00;;;;;;4990098;28;20023;-49
2021/01/12 03:40:07;;;;;;;1.05;0.35;;;21.80;34.00;;;;;;4977108;28;20117;-49
2021/01/12 03:42:35;;;;;;;0.30;0.20;;;21.70;34.00;;;;;;4987685;28;20030;-48
2021/01/12 03:45:05;;;;;;;0.22;0.17;;;21.70;34.10;;;;;;4985748;28;20055;-48
2021/01/12 03:47:31;;;;;;;0.60;0.30;;;21.70;34.10;;;;;;4994863;28;20033;-49
2021/01/12 03:49:57;;;;;;;0.98;0.22;;;21.70;34.10;;;;;;4990665;28;20037;-54
2021/01/12 03:52:23;;;;;;;0.25;0.20;;;21.70;34.10;;;;;;4988352;28;20082;-48
2021/01/12 03:54:49;;;;;;;0.75;0.40;;;21.70;34.20;;;;;;4987046;28;20037;-51
2021/01/12 03:57:14;;;;;;;0.65;0.30;;;21.70;34.20;;;;;;4978881;28;20030;-50
2021/01/12 03:59:40;;;;;;;0.52;0.30;;;21.70;34.20;;;;;;4987399;28;20027;-46
2021/01/12 04:02:06;;;;;;;0.63;0.40;;;21.70;34.20;;;;;;4990927;28;20109;-47
2021/01/12 04:04:32;;;;;;;0.80;0.30;;;21.70;34.30;;;;;;4991276;28;20034;-47
2021/01/12 04:06:57;;;;;;;0.68;0.30;;;21.70;34.30;;;;;;4965443;28;20031;-48
2021/01/12 04:09:24;;;;;;;0.77;0.40;;;21.70;34.30;;;;;;4996782;28;20533;-48
2021/01/12 04:11:49;;;;;;;1.05;0.40;;;21.70;34.30;;;;;;4985554;28;20039;-47
2021/01/12 04:14:15;;;;;;;0.57;0.40;;;21.70;34.40;;;;;;4985915;28;20043;-51
2021/01/12 04:16:42;;;;;;;0.47;0.20;;;21.70;34.40;;;;;;4980463;28;20030;-47
2021/01/12 04:19:08;;;;;;;0.63;0.30;;;21.60;34.40;;;;;;4986659;28;20023;-50
2021/01/12 04:21:34;;;;;;;0.68;0.40;;;21.60;34.40;;;;;;4985504;28;20054;-53
2021/01/12 04:24:00;;;;;;;0.95;0.40;;;21.60;34.40;;;;;;4985767;28;20030;-50
2021/01/12 04:26:25;;;;;;;0.65;0.38;;;21.60;34.50;;;;;;4990814;28;20026;-51
2021/01/12 04:28:51;;;;;;;0.25;0.25;;;21.60;34.50;;;;;;4988728;28;20030;-50
2021/01/12 04:31:17;;;;;;;1.20;0.40;;;21.60;34.50;;;;;;4988198;28;20042;-49
2021/01/12 04:33:43;;;;;;;0.52;0.30;;;21.60;34.50;;;;;;4992268;28;20033;-49
2021/01/12 04:36:09;;;;;;;0.47;0.30;;;21.60;34.60;;;;;;4982065;28;20026;-47
2021/01/12 04:38:34;;;;;;;0.63;0.35;;;21.60;34.60;;;;;;4981962;28;20377;-51
2021/01/12 04:41:01;;;;;;;0.38;0.30;;;21.60;34.60;;;;;;4989609;28;20038;-51
2021/01/12 04:43:26;;;;;;;0.82;0.30;;;21.60;34.60;;;;;;4992082;28;20045;-50
2021/01/12 04:45:52;;;;;;;0.43;0.28;;;21.60;34.60;;;;;;4985304;28;20109;-52
2021/01/12 04:48:18;;;;;;;1.10;0.43;;;21.60;34.70;;;;;;4979199;28;20055;-46
2021/01/12 04:50:44;;;;;;;1.15;0.50;;;21.60;34.70;;;;;;4977218;28;20149;-50
2021/01/12 04:53:10;;;;;;;0.70;0.30;;;21.50;34.70;;;;;;4988817;28;20050;-50
2021/01/12 04:55:35;;;;;;;0.47;0.20;;;21.60;34.80;;;;;;4991463;28;20026;-51
2021/01/12 04:58:01;;;;;;;0.20;0.20;;;21.60;34.80;;;;;;4993601;28;20373;-50
2021/01/12 05:00:29;;;;;;;0.60;0.30;;;21.50;35.40;;;;;;4980751;28;20026;-46
2021/01/12 05:03:06;;;;;;;0.38;0.20;;;21.50;34.80;;;;;;4978728;28;20022;-49
2021/01/12 05:05:36;;;;;;;0.55;0.20;;;21.50;34.80;;;;;;4981498;28;21504;-49
2021/01/12 05:08:10;;;;;;;0.60;0.30;;;21.50;34.90;;;;;;4988176;28;20056;-47
2021/01/12 05:10:40;;;;;;;0.30;0.22;;;21.50;34.90;;;;;;4982519;28;20046;-51
2021/01/12 05:13:11;;;;;;;0.93;0.40;;;21.50;34.90;;;;;;4983234;28;20053;-49
2021/01/12 05:15:38;;;;;;;0.90;0.30;;;21.50;34.90;;;;;;4993196;28;21424;-47
2021/01/12 05:18:10;;;;;;;0.82;0.45;;;21.50;35.00;;;;;;4976917;28;20405;-49
2021/01/12 05:20:41;;;;;;;0.73;0.28;;;21.50;35.00;;;;;;4979643;28;20051;-49
2021/01/12 05:23:08;;;;;;;0.65;0.20;;;21.40;35.00;;;;;;4988197;28;20084;-50
2021/01/12 05:25:39;;;;;;;0.95;0.40;;;21.40;35.00;;;;;;4982633;28;20031;-49
2021/01/12 05:28:09;;;;;;;0.93;0.30;;;21.40;35.00;;;;;;4980553;28;20042;-49
2021/01/12 05:30:35;;;;;;;0.63;0.30;;;21.40;35.00;;;;;;4980568;28;20035;-50
2021/01/12 05:33:01;;;;;;;0.80;0.20;;;21.40;35.10;;;;;;4982269;28;20031;-49
2021/01/12 05:35:37;;;;;;;0.85;0.47;;;21.40;35.10;;;;;;4982804;28;20350;-51
2021/01/12 05:38:08;;;;;;;0.90;0.38;;;21.40;35.20;;;;;;4987552;28;20445;-50
2021/01/12 05:40:38;;;;;;;0.80;0.50;;;21.40;35.20;;;;;;4976036;28;20030;-52
2021/01/12 05:43:13;;;;;;;0.45;0.20;;;21.40;35.20;;;;;;4991341;28;20100;-46
2021/01/12 05:45:43;;;;;;;3.63;0.30;;;21.40;35.20;;;;;;4981683;28;20022;-46
2021/01/12 05:48:10;;;;;;;1.45;0.60;;;21.40;35.30;;;;;;4989402;28;20469;-51
2021/01/12 05:50:37;;;;;;;0.95;0.40;;;21.40;35.30;;;;;;4978417;28;20045;-52
2021/01/12 05:53:04;;;;;;;0.50;0.32;;;21.40;35.30;;;;;;4981701;28;20125;-48
2021/01/12 05:55:41;;;;;;;0.73;0.40;;;21.40;36.00;;;;;;4977561;28;20435;-46
2021/01/12 05:58:11;;;;;;;0.90;0.30;;;21.40;35.40;;;;;;4991381;28;20089;-52
2021/01/12 06:00:41;;;;;;;0.32;0.20;;;21.40;35.40;;;;;;4988673;28;20045;-53
2021/01/12 06:03:09;;;;;;;0.30;0.20;;;21.40;35.40;;;;;;4984789;28;20031;-53
2021/01/12 06:05:36;;;;;;;1.13;0.30;;;21.40;35.50;;;;;;4980685;28;20034;-47
2021/01/12 06:08:02;;;;;;;0.28;0.20;;;21.30;35.40;;;;;;4981639;28;20369;-47
2021/01/12 06:10:30;;;;;;;0.50;0.15;;;21.30;35.30;;;;;;4986983;28;20034;-50
2021/01/12 06:13:00;;;;;;;0.40;0.10;;;21.30;35.30;;;;;;4958507;28;20055;-48
2021/01/12 06:15:27;;;;;;;0.17;0.13;;;21.30;35.20;;;;;;4981742;28;20038;-50
2021/01/12 06:18:04;;;;;;;0.40;0.22;;;21.30;35.20;;;;;;4976674;28;20122;-54
2021/01/12 06:20:40;;;;;;;0.25;0.17;;;21.30;35.20;;;;;;4979567;28;21420;-48
2021/01/12 06:23:07;;;;;;;0.60;0.20;;;21.30;35.20;;;;;;4975757;28;20350;-50
2021/01/12 06:25:34;;;;;;;0.50;0.25;;;21.30;35.20;;;;;;4977750;28;20054;-47
2021/01/12 06:27:59;;;;;;;0.73;0.20;;;21.30;35.20;;;;;;4977670;28;20426;-50
2021/01/12 06:30:26;;;;;;;0.50;0.40;;;21.30;35.20;;;;;;4982314;28;20023;-48
2021/01/12 06:32:52;;;;;;;0.50;0.30;;;21.30;35.20;;;;;;4987422;28;20038;-48
2021/01/12 06:35:20;;;;;;;0.40;0.20;;;21.20;35.10;;;;;;4989516;28;20034;-47
2021/01/12 06:37:50;;;;;;;0.30;0.20;;;21.20;35.10;;;;;;4989849;28;20077;-49
2021/01/12 06:40:19;;;;;;;0.20;0.20;;;21.20;35.10;;;;;;4986236;28;20458;-50
2021/01/12 06:42:45;;;;;;;0.95;0.20;;;21.20;35.20;;;;;;4991443;28;20026;-48
2021/01/12 06:45:12;;;;;;;0.63;0.20;;;21.20;35.20;;;;;;4989132;28;20022;-47
2021/01/12 06:47:38;;;;;;;0.40;0.20;;;21.20;35.10;;;;;;4988827;28;20445;-46
2021/01/12 06:50:07;;;;;;;0.32;0.20;;;21.20;35.20;;;;;;4965184;28;20353;-50
2021/01/12 06:52:49;;;;;;;0.10;0.10;;;21.20;35.20;;;;;;4983294;28;20074;-50
2021/01/12 06:55:17;;;;;;;0.40;0.20;;;21.20;35.10;;;;;;4982824;28;20038;-49
2021/01/12 06:57:45;;;;;;;0.73;0.10;;;21.20;35.20;;;;;;4994217;28;20389;-52
2021/01/12 07:00:11;;;;;;;0.63;0.20;;;21.20;35.20;;;;;;4986958;28;20049;-53
2021/01/12 07:02:37;;;;;;;0.38;0.28;;;21.20;35.20;;;;;;4983866;28;20351;-47
2021/01/12 07:05:05;;;;;;;0.88;0.17;;;21.20;35.20;;;;;;4989897;28;20041;-48
2021/01/12 07:07:35;;;;;;;0.70;0.22;;;21.20;35.20;;;;;;4988042;28;20068;-50
2021/01/12 07:10:04;;;;;;;0.35;0.20;;;21.20;35.20;;;;;;4990777;28;20508;-50
2021/01/12 07:12:32;;;;;;;0.65;0.30;;;21.20;35.20;;;;;;4991930;28;20089;-51
2021/01/12 07:15:12;;;;;;;1.10;0.22;;;21.10;35.20;;;;;;4988989;28;20572;-54
2021/01/12 07:17:43;;;;;;;0.52;0.20;;;21.10;35.20;;;;;;4987874;28;20031;-53
2021/01/12 07:20:16;;;;;;;0.25;0.10;;;21.20;35.20;;;;;;4985953;28;20469;-47
2021/01/12 07:22:55;;;;;;;0.47;0.20;;;21.10;35.30;;;;;;4987534;28;20361;-47
2021/01/12 07:25:26;;;;;;;0.85;0.20;;;21.10;35.30;;;;;;4993855;28;20035;-50
2021/01/12 07:28:14;;;;;;;0.55;0.45;;;21.10;35.30;;;;;;4988161;28;20030;-51
2021/01/12 07:30:45;;;;;;;0.88;0.22;;;21.10;35.30;;;;;;5017210;28;20337;-52
2021/01/12 07:33:19;;;;;;;0.28;0.15;;;21.10;35.30;;;;;;4989603;28;20038;-52
2021/01/12 07:35:48;;;;;;;1.10;0.30;;;21.10;35.30;;;;;;5004684;28;20061;-51
2021/01/12 07:38:16;;;;;;;0.35;0.22;;;21.10;35.20;;;;;;4992544;28;20021;-47
2021/01/12 07:40:42;;;;;;;1.05;0.30;;;21.10;35.20;;;;;;4996251;28;20026;-57
2021/01/12 07:43:14;;;;;;;0.80;0.20;;;21.10;35.20;;;;;;4993544;28;20022;-57
2021/01/12 07:45:41;;;;;;;0.63;0.10;;;21.10;35.40;;;;;;4986808;28;20441;-53
2021/01/12 07:48:08;;;;;;;0.40;0.20;;;21.10;35.70;;;;;;4989680;28;20022;-53
2021/01/12 07:50:34;;;;;;;0.43;0.20;;;21.10;35.80;;;;;;4987034;28;20354;-53
2021/01/12 07:53:04;;;;;;;0.25;0.20;;;21.20;35.90;;;;;;4981613;28;20046;-57
2021/01/12 07:55:30;;;;;;;2.15;0.28;;;21.20;35.80;;;;;;4979998;28;20045;-55
2021/01/12 07:57:57;;;;;;;0.85;0.20;;;21.20;35.70;;;;;;4982302;28;20046;-57
2021/01/12 08:00:24;;;;;;;1.92;0.22;;;21.20;35.70;;;;;;4970321;28;20029;-53
2021/01/12 08:02:52;;;;;;;0.35;0.22;;;21.20;35.60;;;;;;4987578;28;20116;-54
2021/01/12 08:05:20;;;;;;;0.73;0.25;;;21.20;35.60;;;;;;4986604;28;20058;-51
2021/01/12 08:07:46;;;;;;;2.60;0.35;;;21.30;35.60;;;;;;4983337;28;20037;-50
2021/01/12 08:10:12;;;;;;;1.92;0.43;;;21.30;35.60;;;;;;4980642;28;20019;-50
2021/01/12 08:12:38;;;;;;;1.23;0.30;;;21.40;35.60;;;;;;4989870;28;20370;-47
2021/01/12 08:15:12;;;;;;;0.60;0.20;;;21.50;35.60;;;;;;4990353;28;20066;-55
2021/01/12 08:17:50;;;;;;;1.25;0.40;;;21.50;35.60;;;;;;5011724;28;20029;-55
2021/01/12 08:20:18;;;;;;;0.22;0.20;;;21.60;35.70;;;;;;5003925;28;20027;-48
2021/01/12 08:22:54;;;;;;;1.20;0.20;;;21.70;35.70;;;;;;4992769;28;20085;-49
2021/01/12 08:25:21;;;;;;;2.83;0.43;;;21.80;35.70;;;;;;4981965;28;20030;-49
2021/01/12 08:27:59;;;;;;;0.98;0.38;;;21.90;35.60;;;;;;4985831;28;20027;-46
2021/01/12 08:30:27;;;;;;;0.85;0.30;;;22.00;35.50;;;;;;4987876;28;20101;-46
2021/01/12 08:33:08;;;;;;;0.45;0.20;;;22.10;35.40;;;;;;4985321;28;20066;-48
2021/01/12 08:35:43;;;;;;;0.68;0.32;;;22.10;35.30;;;;;;4989846;28;20057;-48
2021/01/12 08:38:13;;;;;;;0.85;0.20;;;22.20;35.20;;;;;;4979246;28;20027;-50
2021/01/12 08:40:40;;;;;;;0.40;0.30;;;22.30;35.20;;;;;;4986913;28;20026;-49
2021/01/12 08:43:14;;;;;;;0.43;0.20;;;22.40;35.20;;;;;;4987009;28;20060;-48
2021/01/12 08:45:41;;;;;;;0.65;0.40;;;22.50;35.10;;;;;;4984534;28;21475;-52
2021/01/12 08:48:13;;;;;;;0.52;0.30;;;22.60;35.00;;;;;;4987311;28;20026;-50
2021/01/12 08:50:39;;;;;;;0.40;0.20;;;22.70;35.00;;;;;;4983060;28;20030;-46
2021/01/12 08:53:06;;;;;;;1.38;0.40;;;22.70;34.80;;;;;;4978933;28;20049;-47
2021/01/12 08:55:32;;;;;;;0.65;0.15;;;22.80;34.70;;;;;;4980048;28;20124;-43
2021/01/12 08:58:03;;;;;;;0.43;0.25;;;22.90;34.60;;;;;;4991443;28;20380;-44
2021/01/12 09:00:35;;;;;;;0.60;0.25;;;22.90;35.10;;;;;;4994195;28;20061;-49
2021/01/12 09:03:03;;;;;;;1.08;0.30;;;23.00;34.30;;;;;;4993495;28;20053;-45
2021/01/12 09:05:32;;;;;;;1.35;0.32;;;23.10;34.30;;;;;;4991875;28;20093;-44
2021/01/12 09:08:02;;;;;;;1.33;0.32;;;23.10;34.20;;;;;;4989673;28;20390;-45
2021/01/12 09:10:28;;;;;;;0.50;0.20;;;23.20;34.20;;;;;;4995938;28;20049;-50
2021/01/12 09:12:55;;;;;;;0.38;0.20;;;23.20;34.10;;;;;;5000302;28;20452;-47
2021/01/12 09:15:35;;;;;;;0.17;0.10;;;23.30;34.00;;;;;;5009786;28;20046;-47
2021/01/12 09:18:19;;;;;;;0.68;0.10;;;23.30;33.90;;;;;;4982824;28;20121;-49
2021/01/12 09:20:59;;;;;;;0.47;0.20;;;23.40;33.80;;;;;;4975852;28;20043;-51
2021/01/12 09:23:26;;;;;;;1.10;0.30;;;23.40;33.70;;;;;;4976164;28;20057;-49
2021/01/12 09:25:54;;;;;;;1.80;0.30;;;23.50;33.60;;;;;;4994083;28;20033;-51
2021/01/12 09:28:27;;;;;;;0.50;0.10;;;23.50;33.50;;;;;;4992684;28;20117;-53
2021/01/12 09:31:07;;;;;;;0.20;0.20;;;23.50;33.50;;;;;;4995096;28;20096;-51
2021/01/12 09:33:34;;;;;;;0.55;0.25;;;23.60;33.40;;;;;;4975938;28;20047;-53
2021/01/12 09:36:04;;;;;;;0.68;0.20;;;23.60;33.40;;;;;;4985385;28;20065;-52
2021/01/12 09:38:45;;;;;;;1.33;0.20;;;23.60;33.90;;;;;;5005842;28;20060;-46
2021/01/12 09:41:13;;;;;;;0.30;0.20;;;23.60;33.20;;;;;;4988870;28;20046;-43
2021/01/12 09:43:39;;;;;;;1.30;0.22;;;23.60;33.20;;;;;;4975507;28;20181;-46
2021/01/12 09:46:05;;;;;;;0.40;0.20;;;23.60;33.20;;;;;;4994848;28;20034;-50
2021/01/12 09:48:31;;;;;;;1.98;0.25;;;23.70;33.20;;;;;;4985777;28;20034;-46
2021/01/12 09:50:58;;;;;;;0.43;0.20;;;23.70;33.10;;;;;;4994963;28;20030;-51
2021/01/12 09:53:24;;;;;;;0.35;0.20;;;23.70;33.10;;;;;;4986070;28;20323;-48
2021/01/12 09:55:50;;;;;;;0.65;0.25;;;23.70;33.10;;;;;;4984044;28;20492;-44
2021/01/12 09:58:16;;;;;;;0.20;0.20;;;23.70;33.00;;;;;;4979578;28;20038;-46
2021/01/12 10:00:42;;;;;;;1.70;0.30;;;23.70;33.00;;;;;;4974897;28;20453;-45
2021/01/12 10:03:08;;;;;;;0.95;0.25;;;23.70;32.90;;;;;;4984086;28;20985;-50
2021/01/12 10:05:41;;;;;;;0.45;0.20;;;23.70;32.90;;;;;;5016343;28;20504;-47
2021/01/12 10:08:07;;;;;;;0.47;0.30;;;23.80;32.90;;;;;;4989889;28;20045;-46
2021/01/12 10:10:34;;;;;;;0.90;0.32;;;23.70;32.80;;;;;;4979577;28;20039;-45
2021/01/12 10:13:01;;;;;;;1.75;0.13;;;23.70;32.80;;;;;;4991321;28;20038;-46
2021/01/12 10:15:27;;;;;;;0.40;0.20;;;23.70;32.80;;;;;;5015544;28;20025;-44
2021/01/12 10:17:53;;;;;;;0.10;0.10;;;23.70;32.80;;;;;;5000318;28;20457;-47
2021/01/12 10:20:19;;;;;;;0.20;0.10;;;23.80;32.80;;;;;;4978689;28;20038;-47
2021/01/12 10:22:45;;;;;;;0.75;0.10;;;23.70;32.70;;;;;;4979969;28;20039;-47
2021/01/12 10:25:11;;;;;;;0.52;0.20;;;23.70;32.70;;;;;;5006353;28;20515;-46
2021/01/12 10:27:38;;;;;;;0.65;0.20;;;23.70;32.80;;;;;;4997359;28;20097;-46
2021/01/12 10:30:08;;;;;;;0.28;0.20;;;23.70;32.70;;;;;;4998189;28;20040;-52
2021/01/12 10:32:34;;;;;;;0.70;0.20;;;23.80;32.80;;;;;;4993002;28;20172;-48
2021/01/12 10:35:01;;;;;;;0.43;0.30;;;23.70;32.70;;;;;;4998283;28;20113;-46
2021/01/12 10:37:27;;;;;;;0.70;0.30;;;23.70;32.70;;;;;;4979493;28;20041;-45
2021/01/12 10:39:54;;;;;;;0.47;0.30;;;23.70;32.70;;;;;;4978833;28;20070;-44
2021/01/12 10:42:21;;;;;;;2.00;0.28;;;23.70;32.70;;;;;;4990307;28;20484;-51
2021/01/12 10:44:47;;;;;;;1.23;0.40;;;23.70;32.70;;;;;;5003442;28;20088;-51
2021/01/12 10:47:13;;;;;;;0.10;0.10;;;23.70;32.80;;;;;;4984546;28;20034;-45
2021/01/12 10:49:39;;;;;;;0.40;0.15;;;23.70;32.80;;;;;;5012159;28;20034;-45
2021/01/12 10:52:06;;;;;;;0.88;0.20;;;23.70;32.90;;;;;;4986636;28;20475;-47
2021/01/12 10:54:33;;;;;;;0.68;0.20;;;23.70;33.00;;;;;;4991372;28;20081;-45
2021/01/12 10:56:59;;;;;;;1.45;0.73;;;23.70;32.90;;;;;;5005850;28;20065;-48
2021/01/12 10:59:28;;;;;;;0.43;0.20;;;23.70;32.90;;;;;;5006236;28;20034;-45
2021/01/12 11:01:56;;;;;;;0.40;0.30;;;23.70;32.90;;;;;;4997563;28;20045;-42
2021/01/12 11:04:22;;;;;;;1.02;0.30;;;23.60;32.80;;;;;;4997331;28;20041;-45
2021/01/12 11:06:51;;;;;;;0.73;0.30;;;23.70;32.80;;;;;;5009174;28;20048;-48
2021/01/12 11:09:20;;;;;;;0.45;0.20;;;23.60;32.70;;;;;;4997501;28;21582;-43
2021/01/12 11:11:48;;;;;;;0.20;0.20;;;23.60;32.70;;;;;;4996457;28;20038;-46
2021/01/12 11:14:21;;;;;;;0.50;0.22;;;23.60;32.70;;;;;;5009217;28;20065;-46
2021/01/12 11:16:51;;;;;;;0.20;0.10;;;23.60;32.70;;;;;;4995169;28;20030;-50
2021/01/12 11:19:18;;;;;;;1.77;0.20;;;23.60;32.70;;;;;;4980569;28;20059;-46
2021/01/12 11:21:46;;;;;;;0.10;0.10;;;23.60;32.60;;;;;;4962181;28;20438;-47
2021/01/12 11:24:14;;;;;;;0.98;0.30;;;23.60;32.60;;;;;;4996076;28;20039;-45
2021/01/12 11:26:42;;;;;;;1.13;0.20;;;23.60;32.60;;;;;;4996321;28;20046;-46
2021/01/12 11:29:09;;;;;;;0.30;0.10;;;23.60;32.60;;;;;;4987376;28;20027;-48
2021/01/12 11:31:36;;;;;;;0.28;0.20;;;23.60;32.60;;;;;;4982824;28;20335;-46
2021/01/12 11:34:02;;;;;;;0.65;0.30;;;23.60;32.60;;;;;;4985581;28;20115;-47
2021/01/12 11:36:36;;;;;;;0.38;0.20;;;23.60;32.70;;;;;;4994936;28;20053;-48
2021/01/12 11:39:02;;;;;;;0.38;0.20;;;23.50;32.60;;;;;;4990463;28;20054;-47
2021/01/12 11:41:28;;;;;;;0.68;0.10;;;23.60;32.70;;;;;;4982470;28;20497;-47
2021/01/12 11:43:54;;;;;;;0.52;0.17;;;23.60;32.70;;;;;;4996362;28;20113;-44
2021/01/12 11:46:30;;;;;;;0.10;0.10;;;23.60;32.80;;;;;;4991863;28;20054;-43
2021/01/12 11:48:57;;;;;;;0.55;0.20;;;23.60;32.80;;;;;;4991997;28;20038;-45
2021/01/12 11:51:23;;;;;;;0.10;0.10;;;23.60;32.90;;;;;;4979154;28;20034;-44
2021/01/12 11:53:53;;;;;;;0.65;0.30;;;23.60;32.90;;;;;;4982346;28;20038;-47
2021/01/12 11:56:19;;;;;;;0.95;0.20;;;23.60;32.90;;;;;;4997018;28;20096;-47
2021/01/12 11:58:45;;;;;;;2.38;0.45;;;23.60;33.00;;;;;;5003368;28;20030;-46
2021/01/12 12:01:10;;;;;;;0.40;0.20;;;23.60;33.00;;;;;;4997142;28;20037;-46
2021/01/12 12:03:36;;;;;;;0.47;0.20;;;23.60;33.10;;;;;;4990949;28;20038;-43
2021/01/12 12:06:03;;;;;;;0.30;0.15;;;23.60;33.10;;;;;;4996011;28;20072;-47
2021/01/12 12:08:28;;;;;;;0.52;0.20;;;23.60;33.00;;;;;;4995326;28;20064;-47
2021/01/12 12:10:54;;;;;;;0.47;0.20;;;23.60;33.00;;;;;;5016582;28;20065;-44
2021/01/12 12:13:20;;;;;;;0.30;0.20;;;23.60;32.90;;;;;;5005938;28;20057;-44
2021/01/12 12:15:47;;;;;;;2.33;0.20;;;23.60;32.90;;;;;;4996521;28;20034;-44
2021/01/12 12:18:13;;;;;;;1.38;0.32;;;23.60;33.00;;;;;;4999502;28;20422;-44
2021/01/12 12:20:41;;;;;;;0.38;0.20;;;23.60;33.10;;;;;;4999577;28;20057;-45
2021/01/12 12:23:07;;;;;;;0.40;0.10;;;23.60;33.70;;;;;;4995993;28;20045;-43
2021/01/12 12:25:33;;;;;;;0.30;0.20;;;23.60;33.10;;;;;;4995421;28;20038;-62
2021/01/12 12:27:59;;;;;;;2.05;0.50;;;23.60;33.20;;;;;;4985570;28;20045;-62
2021/01/12 12:30:27;;;;;;;2.60;0.70;;;23.50;30.50;;;;;;4994001;28;20169;-43
2021/01/12 12:32:53;;;;;;;3.80;0.80;;;23.30;30.30;;;;;;4995074;28;20049;-42
2021/01/12 12:35:19;;;;;;;2.95;0.47;;;23.10;31.10;;;;;;4985102;28;20333;-44
2021/01/12 12:37:46;;;;;;;1.23;0.38;;;23.00;31.60;;;;;;4959776;28;20042;-48
2021/01/12 12:40:13;;;;;;;0.73;0.25;;;23.00;31.90;;;;;;4987056;28;20486;-48
2021/01/12 12:42:39;;;;;;;0.60;0.30;;;23.00;32.00;;;;;;4982188;28;20042;-48
2021/01/12 12:45:05;;;;;;;1.58;0.32;;;23.10;32.20;;;;;;4992467;28;20035;-48
2021/01/12 12:47:31;;;;;;;1.88;0.47;;;23.10;32.20;;;;;;4995589;28;20452;-46
2021/01/12 12:49:57;;;;;;;3.15;0.30;;;23.20;32.30;;;;;;4993200;28;20022;-48
2021/01/12 12:52:23;;;;;;;2.95;0.20;;;23.20;32.40;;;;;;4985384;28;20050;-44